Time;durP1;ratioP1;P1;durP2;ratioP2;P2;SDS_P1;SDS_P2;PMS_P1;PMS_P2;Temp;Humidity;BMP_temperature;BMP_pressure;BME280_temperature;BME280_humidity;BME280_pressure;Samples;Min_cycle;Max_cycle;Signal;HPM_P1;HPM_P2
2021/05/01 00:00:07;;;;;;;14.75;13.35;;;;;;;9.82;84.77;97989.59;1795219;78;21669;-75
2021/05/01 00:02:38;;;;;;;15.25;13.72;;;;;;;9.82;85.01;97987.40;1793935;78;21422;-74
2021/05/01 00:05:09;;;;;;;16.37;13.45;;;;;;;9.82;85.29;97989.59;1799837;78;21573;-74
2021/05/01 00:07:38;;;;;;;14.30;12.90;;;;;;;9.83;85.42;97987.78;1783420;78;21061;-73
2021/05/01 00:10:07;;;;;;;15.50;13.90;;;;;;;9.85;85.43;97985.84;1793887;78;21052;-75
2021/05/01 00:12:39;;;;;;;13.53;12.03;;;;;;;9.87;85.47;97990.59;1798569;78;20977;-73
2021/05/01 00:15:10;;;;;;;13.30;12.03;;;;;;;9.89;85.49;97986.00;1796757;79;21366;-74
2021/05/01 00:17:39;;;;;;;14.63;11.55;;;;;;;9.92;85.48;97985.77;1781251;79;21065;-73
2021/05/01 00:20:08;;;;;;;13.93;12.50;;;;;;;9.92;85.33;97984.44;1779629;79;21041;-73
2021/05/01 00:22:37;;;;;;;12.58;11.28;;;;;;;9.91;85.17;97978.69;1803602;78;21506;-73
2021/05/01 00:25:06;;;;;;;11.08;10.08;;;;;;;9.93;85.06;97979.42;1775510;78;21192;-74
2021/05/01 00:27:36;;;;;;;12.93;10.45;;;;;;;9.91;84.95;97978.19;1810545;78;22275;-72
2021/05/01 00:30:10;;;;;;;11.12;9.48;;;;;;;9.90;84.63;97983.20;1784578;78;21064;-73
2021/05/01 00:32:39;;;;;;;11.38;10.28;;;;;;;9.87;84.20;97985.23;1807983;79;21530;-73
2021/05/01 00:35:10;;;;;;;10.68;9.80;;;;;;;9.85;83.75;97989.86;1795888;78;21542;-71
2021/05/01 00:37:38;;;;;;;10.53;9.48;;;;;;;9.80;83.42;97989.34;1798460;78;21077;-72
2021/05/01 00:40:11;;;;;;;11.25;10.13;;;;;;;9.77;83.41;97991.75;1788493;78;21360;-73
2021/05/01 00:42:38;;;;;;;9.90;9.08;;;;;;;9.73;83.47;97994.30;1767805;80;21027;-73
2021/05/01 00:45:08;;;;;;;9.90;8.08;;;;;;;9.69;83.80;97990.13;1742399;81;21053;-73
2021/05/01 00:47:36;;;;;;;9.70;8.73;;;;;;;9.65;83.80;97990.84;1716885;82;21103;-73
2021/05/01 00:50:07;;;;;;;10.70;9.58;;;;;;;9.62;83.37;97992.39;1706167;82;21485;-73
2021/05/01 00:52:35;;;;;;;10.45;9.35;;;;;;;9.59;83.15;97989.94;1725682;81;21444;-72
2021/05/01 00:55:04;;;;;;;9.63;8.83;;;;;;;9.55;83.12;97993.79;1704148;82;21679;-73
2021/05/01 00:57:38;;;;;;;10.50;8.95;;;;;;;9.50;83.09;97994.12;1732833;81;21503;-73
2021/05/01 01:00:26;;;;;;;10.43;9.43;;;;;;;9.45;83.08;97996.77;1743390;81;21065;-72
2021/05/01 01:02:39;;;;;;;10.90;9.88;;;;;;;9.38;83.01;98000.34;1736060;81;20958;-72
2021/05/01 01:05:08;;;;;;;10.43;8.25;;;;;;;9.33;82.98;97998.02;1743100;81;21385;-73
2021/05/01 01:07:37;;;;;;;10.85;8.60;;;;;;;9.29;82.90;98004.55;1735518;82;38444;-73
2021/05/01 01:10:07;;;;;;;9.68;8.75;;;;;;;9.26;82.85;98007.45;1731463;82;21039;-73
2021/05/01 01:12:34;;;;;;;8.58;7.87;;;;;;;9.22;82.79;98000.58;1757120;80;20924;-74
2021/05/01 01:15:05;;;;;;;9.43;8.53;;;;;;;9.17;82.87;98005.41;1767443;80;21493;-73
2021/05/01 01:17:33;;;;;;;7.55;6.95;;;;;;;9.12;82.89;97996.35;1754426;80;22459;-74
2021/05/01 01:20:03;;;;;;;7.83;7.10;;;;;;;9.08;82.89;97995.33;1743826;80;21094;-73
2021/05/01 01:22:31;;;;;;;8.63;6.92;;;;;;;9.06;83.02;97997.27;1760037;80;20924;-73
2021/05/01 01:25:01;;;;;;;7.22;6.50;;;;;;;9.03;83.33;97994.30;1758362;80;21477;-72
2021/05/01 01:27:30;;;;;;;7.42;6.72;;;;;;;9.00;83.50;97995.40;1753713;80;21032;-73
2021/05/01 01:29:57;;;;;;;7.45;6.85;;;;;;;8.97;83.64;97996.95;1699811;81;21335;-74
2021/05/01 01:32:26;;;;;;;8.68;7.87;;;;;;;8.93;83.75;98000.79;1764006;80;21511;-72
2021/05/01 01:34:53;;;;;;;8.78;7.90;;;;;;;8.92;83.76;98010.27;1753852;80;20930;-73
2021/05/01 01:37:21;;;;;;;8.85;7.95;;;;;;;8.90;83.59;98015.73;1748087;80;21620;-73
2021/05/01 01:39:49;;;;;;;9.15;8.10;;;;;;;8.86;83.47;98021.79;1767970;80;21628;-73
2021/05/01 01:42:19;;;;;;;10.05;7.60;;;;;;;8.85;83.44;98019.22;1754555;80;20907;-74
2021/05/01 01:44:47;;;;;;;8.78;7.87;;;;;;;8.79;83.43;98015.12;1742780;80;21070;-74
2021/05/01 01:47:17;;;;;;;7.92;7.22;;;;;;;8.76;83.49;98015.33;1767683;80;21133;-74
2021/05/01 01:49:44;;;;;;;9.50;7.62;;;;;;;8.75;83.51;98014.09;1754283;80;20924;-74
2021/05/01 01:52:12;;;;;;;8.75;7.72;;;;;;;8.73;83.52;98005.32;1741895;80;21027;-73
2021/05/01 01:54:41;;;;;;;7.60;6.90;;;;;;;8.71;83.74;98005.91;1755943;80;21369;-72
2021/05/01 01:57:08;;;;;;;8.50;7.50;;;;;;;8.67;83.68;98006.13;1765772;80;21160;-73
2021/05/01 01:59:36;;;;;;;7.70;6.78;;;;;;;8.67;83.71;97999.89;1760403;80;20953;-72
2021/05/01 02:02:07;;;;;;;8.98;7.75;;;;;;;8.66;83.65;97999.53;1773809;80;21125;-73
2021/05/01 02:04:34;;;;;;;9.08;7.95;;;;;;;8.64;83.60;97998.30;1761764;80;21003;-72
2021/05/01 02:07:01;;;;;;;7.03;6.17;;;;;;;8.62;83.62;97992.16;1765828;80;21386;-73
2021/05/01 02:09:31;;;;;;;6.60;5.95;;;;;;;8.60;83.52;97999.45;1743124;80;21013;-73
2021/05/01 02:11:59;;;;;;;5.80;5.30;;;;;;;8.57;83.38;97998.32;1748758;80;21569;-73
2021/05/01 02:14:28;;;;;;;5.70;5.20;;;;;;;8.53;83.07;97995.50;1757992;80;20917;-72
2021/05/01 02:16:57;;;;;;;6.00;5.40;;;;;;;8.51;83.07;97994.72;1773448;80;21664;-73
2021/05/01 02:19:24;;;;;;;6.10;5.40;;;;;;;8.48;82.88;97989.57;1764817;80;21411;-72
2021/05/01 02:21:52;;;;;;;7.50;6.30;;;;;;;8.43;82.91;97990.34;1796465;78;21589;-73
2021/05/01 02:24:20;;;;;;;6.33;5.83;;;;;;;8.40;82.92;97988.71;1807749;79;21502;-72
2021/05/01 02:26:49;;;;;;;8.13;6.50;;;;;;;8.37;83.10;97986.73;1786716;78;21184;-72
2021/05/01 02:29:17;;;;;;;6.62;5.83;;;;;;;8.36;83.35;97983.70;1772132;78;20974;-73
2021/05/01 02:31:45;;;;;;;6.12;5.58;;;;;;;8.36;83.63;97982.36;1777802;78;21418;-74
2021/05/01 02:34:12;;;;;;;8.38;7.05;;;;;;;8.36;83.90;97979.69;1784558;78;20946;-73
2021/05/01 02:36:41;;;;;;;7.90;6.72;;;;;;;8.39;84.20;97976.77;1781055;78;21503;-74
2021/05/01 02:39:10;;;;;;;7.90;5.97;;;;;;;8.42;84.48;97984.13;1799765;78;21550;-73
2021/05/01 02:41:37;;;;;;;6.35;5.75;;;;;;;8.44;84.58;97980.05;1786615;78;21610;-73
2021/05/01 02:44:05;;;;;;;6.08;5.45;;;;;;;8.47;84.45;97974.50;1769826;79;22281;-73
2021/05/01 02:46:34;;;;;;;6.05;5.33;;;;;;;8.49;84.41;97976.58;1798286;78;20934;-73
2021/05/01 02:49:02;;;;;;;5.95;5.40;;;;;;;8.51;84.35;97973.30;1782991;78;21089;-73
2021/05/01 02:51:32;;;;;;;6.45;5.85;;;;;;;8.49;84.20;97972.06;1795462;78;21053;-73
2021/05/01 02:54:00;;;;;;;6.72;5.97;;;;;;;8.48;84.12;97981.54;1794030;77;21601;-72
2021/05/01 02:56:28;;;;;;;5.35;4.72;;;;;;;8.46;84.12;97980.80;1799409;78;22450;-73
2021/05/01 02:58:58;;;;;;;7.22;5.40;;;;;;;8.45;84.13;97983.08;1779945;78;21518;-71
2021/05/01 03:01:27;;;;;;;6.70;6.10;;;;;;;8.42;84.12;97983.25;1803759;78;20995;-72
2021/05/01 03:03:55;;;;;;;6.00;5.40;;;;;;;8.40;84.17;97986.03;1798908;77;21115;-73
2021/05/01 03:06:24;;;;;;;7.28;6.03;;;;;;;8.39;84.26;97991.03;1790548;78;20911;-73
2021/05/01 03:08:54;;;;;;;7.05;5.92;;;;;;;8.38;84.43;97989.80;1807344;79;21357;-73
2021/05/01 03:11:22;;;;;;;6.42;5.80;;;;;;;8.39;84.60;97992.83;1802845;78;21037;-71
2021/05/01 03:13:49;;;;;;;8.93;5.83;;;;;;;8.38;84.45;97987.12;1788742;78;21531;-72
2021/05/01 03:16:19;;;;;;;6.95;6.35;;;;;;;8.39;84.45;97982.13;1800003;78;21598;-72
2021/05/01 03:18:47;;;;;;;6.83;6.05;;;;;;;8.38;84.60;97985.29;1809030;78;20986;-72
2021/05/01 03:21:15;;;;;;;7.00;6.30;;;;;;;8.37;84.64;97986.27;1798569;78;22500;-72
2021/05/01 03:23:44;;;;;;;6.33;5.72;;;;;;;8.38;84.58;97985.78;1793232;78;21080;-72
2021/05/01 03:26:12;;;;;;;6.45;5.85;;;;;;;8.36;84.62;97985.88;1808260;79;21607;-74
2021/05/01 03:28:41;;;;;;;7.05;6.35;;;;;;;8.37;84.75;97987.61;1797184;78;21526;-74
2021/05/01 03:31:09;;;;;;;7.35;6.65;;;;;;;8.38;84.85;97985.78;1802198;78;20977;-76
2021/05/01 03:33:36;;;;;;;6.97;6.33;;;;;;;8.39;84.83;97980.33;1809322;78;21423;-73
2021/05/01 03:36:06;;;;;;;6.62;5.87;;;;;;;8.41;84.77;97973.53;1792345;78;20946;-73
2021/05/01 03:38:34;;;;;;;6.33;5.78;;;;;;;8.41;84.68;97967.69;1789606;78;21049;-73
2021/05/01 03:41:03;;;;;;;6.58;6.05;;;;;;;8.43;84.77;97967.59;1780785;78;20990;-73
2021/05/01 03:43:31;;;;;;;7.25;6.50;;;;;;;8.47;84.93;97974.50;1797086;79;21646;-73
2021/05/01 03:46:02;;;;;;;7.50;6.78;;;;;;;8.50;84.95;97966.26;1776311;78;21449;-74
2021/05/01 03:48:31;;;;;;;10.20;6.37;;;;;;;8.53;85.01;97963.38;1800890;78;20936;-74
2021/05/01 03:51:01;;;;;;;8.00;7.20;;;;;;;8.57;85.16;97970.70;1794727;78;21602;-74
2021/05/01 03:53:32;;;;;;;7.00;6.40;;;;;;;8.59;85.17;97972.78;1779753;78;21018;-74
2021/05/01 03:56:01;;;;;;;7.28;6.67;;;;;;;8.62;85.13;97970.75;1781996;78;21200;-74
2021/05/01 03:58:30;;;;;;;7.62;6.92;;;;;;;8.66;85.21;97962.89;1807538;78;22361;-74
2021/05/01 04:00:59;;;;;;;8.35;7.65;;;;;;;8.70;85.44;97959.52;1806042;78;20961;-74
2021/05/01 04:03:26;;;;;;;9.45;8.58;;;;;;;8.77;85.56;97962.66;1788444;78;21089;-76
2021/05/01 04:05:54;;;;;;;9.23;8.23;;;;;;;8.80;85.74;97959.27;1799015;78;20950;-74
2021/05/01 04:08:22;;;;;;;7.53;6.83;;;;;;;8.88;85.84;97961.42;1807868;78;21328;-74
2021/05/01 04:10:51;;;;;;;7.45;6.85;;;;;;;8.95;85.67;97969.39;1789275;78;21743;-74
2021/05/01 04:13:21;;;;;;;7.37;6.67;;;;;;;9.00;85.63;97971.75;1803528;78;20989;-74
2021/05/01 04:15:50;;;;;;;7.45;6.75;;;;;;;9.07;85.60;97969.03;1806844;79;21045;-74
2021/05/01 04:18:18;;;;;;;9.75;7.42;;;;;;;9.14;85.49;97962.26;1802633;78;20997;-74
2021/05/01 04:20:47;;;;;;;8.05;6.80;;;;;;;9.21;85.26;97958.69;1803278;78;21538;-74
2021/05/01 04:23:17;;;;;;;6.85;6.25;;;;;;;9.31;85.12;97968.27;1812519;78;22276;-74
2021/05/01 04:25:44;;;;;;;6.53;5.90;;;;;;;9.38;84.76;97962.82;1780195;77;20962;-77
2021/05/01 04:28:15;;;;;;;7.40;6.80;;;;;;;9.44;84.36;97964.22;1786161;78;20977;-75
2021/05/01 04:30:43;;;;;;;8.68;6.42;;;;;;;9.50;83.96;97971.83;1790908;78;21390;-74
2021/05/01 04:33:11;;;;;;;12.37;6.40;;;;;;;9.55;83.93;97974.56;1778676;78;21547;-74
2021/05/01 04:35:41;;;;;;;6.40;5.42;;;;;;;9.64;83.68;97979.72;1808092;78;22039;-74
2021/05/01 04:38:10;;;;;;;6.42;5.83;;;;;;;9.82;83.69;97982.03;1809368;79;21100;-75
2021/05/01 04:40:38;;;;;;;6.45;5.83;;;;;;;10.02;83.43;97972.03;1769338;79;21061;-75
2021/05/01 04:43:07;;;;;;;6.83;6.33;;;;;;;10.31;82.54;97978.39;1792496;78;21491;-75
2021/05/01 04:45:36;;;;;;;6.25;5.75;;;;;;;10.60;81.54;97964.65;1802595;77;21121;-75
2021/05/01 04:48:07;;;;;;;6.83;6.08;;;;;;;10.94;80.79;97959.34;1795613;77;21479;-76
2021/05/01 04:50:40;;;;;;;7.75;6.40;;;;;;;11.31;79.99;97962.69;1804601;79;21021;-76
2021/05/01 04:53:07;;;;;;;6.53;5.92;;;;;;;11.74;78.92;97971.83;1792342;78;20998;-76
2021/05/01 04:55:34;;;;;;;6.53;6.03;;;;;;;12.15;78.40;97974.34;1784757;78;21641;-74
2021/05/01 04:58:02;;;;;;;6.67;6.08;;;;;;;12.58;77.25;97972.59;1801902;78;21264;-76
2021/05/01 05:00:29;;;;;;;6.95;6.30;;;;;;;13.03;76.00;97971.51;1805473;78;22086;-76
2021/05/01 05:02:56;;;;;;;7.90;6.20;;;;;;;13.43;74.72;97973.45;1777325;78;21015;-75
2021/05/01 05:05:25;;;;;;;6.55;6.00;;;;;;;13.79;73.45;97968.48;1792117;78;20938;-76
2021/05/01 05:07:52;;;;;;;7.05;6.53;;;;;;;14.07;72.38;97971.74;1800653;78;20935;-75
2021/05/01 05:10:19;;;;;;;6.55;5.60;;;;;;;14.34;71.83;97967.52;1779978;78;21059;-75
2021/05/01 05:12:48;;;;;;;7.70;7.03;;;;;;;14.62;71.47;97958.25;1800253;78;22249;-75
2021/05/01 05:15:18;;;;;;;7.42;5.90;;;;;;;14.91;70.88;97950.09;1807291;78;20961;-75
2021/05/01 05:17:46;;;;;;;6.35;5.85;;;;;;;15.22;69.84;97958.52;1808070;78;21014;-76
2021/05/01 05:20:14;;;;;;;6.22;5.62;;;;;;;15.50;69.24;97949.95;1777837;78;20923;-75
2021/05/01 05:22:44;;;;;;;5.40;4.90;;;;;;;15.72;68.31;97943.30;1769608;78;21042;-76
2021/05/01 05:25:11;;;;;;;5.15;4.75;;;;;;;15.95;67.87;97942.41;1769952;78;21364;-77
2021/05/01 05:27:42;;;;;;;4.87;4.47;;;;;;;16.19;67.28;97943.20;1808203;79;21110;-76
2021/05/01 05:30:10;;;;;;;4.97;4.53;;;;;;;16.44;67.06;97936.64;1792832;78;21014;-76
2021/05/01 05:32:37;;;;;;;8.53;4.95;;;;;;;16.67;66.57;97934.83;1790687;78;20953;-76
2021/05/01 05:35:08;;;;;;;4.80;4.40;;;;;;;16.89;66.30;97933.00;1792324;77;21448;-76
2021/05/01 05:37:37;;;;;;;6.47;5.60;;;;;;;17.18;65.74;97935.91;1779124;78;21357;-76
2021/05/01 05:40:06;;;;;;;9.20;5.62;;;;;;;17.49;65.15;97938.13;1802443;78;21053;-75
2021/05/01 05:42:35;;;;;;;5.25;4.75;;;;;;;17.77;64.56;97941.98;1790996;78;21057;-77
2021/05/01 05:45:03;;;;;;;8.08;6.03;;;;;;;18.05;63.44;97939.91;1801809;78;21016;-75
2021/05/01 05:47:31;;;;;;;6.65;4.25;;;;;;;18.30;63.66;97941.34;1802481;78;20993;-76
2021/05/01 05:49:59;;;;;;;5.17;4.55;;;;;;;18.58;62.09;97935.09;1800248;78;21321;-77
2021/05/01 05:52:27;;;;;;;4.70;4.30;;;;;;;18.87;61.97;97933.77;1776864;78;21076;-77
2021/05/01 05:54:57;;;;;;;7.33;4.53;;;;;;;19.11;60.63;97928.31;1787412;78;21148;-76
2021/05/01 05:57:26;;;;;;;5.97;4.40;;;;;;;19.30;60.03;97927.61;1791600;78;21061;-75
2021/05/01 05:59:53;;;;;;;4.47;4.05;;;;;;;19.39;59.47;97920.25;1801315;78;21463;-74
2021/05/01 06:02:22;;;;;;;4.40;4.00;;;;;;;19.40;59.47;97919.23;1810014;78;21320;-76
2021/05/01 06:05:36;;;;;;;5.28;4.80;;;;;;;19.33;59.52;97917.73;1806679;79;21037;-76
2021/05/01 06:08:05;;;;;;;7.55;5.25;;;;;;;19.20;59.37;97920.13;1793235;78;21510;-77
2021/05/01 06:10:34;;;;;;;5.97;5.33;;;;;;;19.02;60.02;97911.65;1783662;79;20930;-78
2021/05/01 06:13:05;;;;;;;10.63;5.33;;;;;;;18.88;60.74;97913.71;1782841;78;21232;-77
2021/05/01 06:15:33;;;;;;;5.25;4.75;;;;;;;18.74;60.84;97907.89;1790064;78;21800;-75
2021/05/01 06:18:01;;;;;;;5.35;4.75;;;;;;;18.66;61.08;97905.17;1787092;78;20970;-76
2021/05/01 06:20:30;;;;;;;6.42;4.10;;;;;;;18.62;61.51;97914.72;1790268;78;21053;-77
2021/05/01 06:23:01;;;;;;;5.42;3.98;;;;;;;18.67;61.97;97915.05;1775083;79;21423;-77
2021/05/01 06:25:30;;;;;;;11.35;4.33;;;;;;;18.77;61.73;97912.98;1785351;78;20942;-77
2021/05/01 06:27:57;;;;;;;4.92;4.33;;;;;;;18.90;61.16;97908.94;1769979;78;21814;-79
2021/05/01 06:30:25;;;;;;;4.10;3.70;;;;;;;19.04;59.75;97909.59;1796196;78;21041;-77
2021/05/01 06:32:55;;;;;;;4.62;4.22;;;;;;;19.12;59.80;97907.38;1785067;78;20950;-76
2021/05/01 06:35:23;;;;;;;8.28;4.45;;;;;;;19.17;59.00;97904.14;1784886;78;20975;-78
2021/05/01 06:37:52;;;;;;;5.28;4.22;;;;;;;19.17;60.06;97902.78;1803790;78;21665;-76
2021/05/01 06:40:24;;;;;;;12.35;4.83;;;;;;;19.16;59.50;97911.95;1799869;78;21324;-76
2021/05/01 06:43:01;;;;;;;10.78;4.97;;;;;;;19.15;58.83;97915.20;1800014;78;20996;-77
2021/05/01 06:45:34;;;;;;;6.03;5.00;;;;;;;19.08;59.74;97924.58;1796326;78;20968;-78
2021/05/01 06:48:05;;;;;;;7.55;6.28;;;;;;;18.99;59.88;97936.48;1809697;79;20949;-78
2021/05/01 06:50:35;;;;;;;11.28;5.62;;;;;;;18.89;59.49;97938.55;1788998;77;20942;-77
2021/05/01 06:53:03;;;;;;;7.90;5.83;;;;;;;18.77;60.33;97942.07;1808152;79;21806;-75
2021/05/01 06:55:32;;;;;;;12.40;5.50;;;;;;;18.64;61.26;97934.95;1792134;78;21055;-76
2021/05/01 06:58:01;;;;;;;9.50;5.58;;;;;;;18.45;62.80;97916.56;1806991;79;21573;-78
2021/05/01 07:00:30;;;;;;;5.95;5.35;;;;;;;18.24;63.41;97919.25;1788814;78;21013;-75
2021/05/01 07:03:08;;;;;;;6.78;6.08;;;;;;;18.02;64.37;97915.30;1778779;78;21593;-78
2021/05/01 07:05:37;;;;;;;6.97;6.28;;;;;;;17.81;65.73;97913.48;1758756;79;21357;-77
2021/05/01 07:08:06;;;;;;;6.40;5.65;;;;;;;17.61;67.04;97917.84;1796750;78;20933;-77
2021/05/01 07:10:36;;;;;;;6.65;6.03;;;;;;;17.48;67.90;97916.06;1809239;78;21343;-77
2021/05/01 07:13:06;;;;;;;6.47;5.12;;;;;;;17.40;68.14;97918.74;1811037;78;21491;-78
2021/05/01 07:15:34;;;;;;;6.03;5.40;;;;;;;17.33;68.98;97918.02;1761695;78;21106;-78
2021/05/01 07:18:01;;;;;;;5.40;4.90;;;;;;;17.30;69.87;97914.27;1799048;78;21558;-76
2021/05/01 07:20:30;;;;;;;6.97;5.55;;;;;;;17.28;69.60;97909.52;1804997;78;21454;-76
2021/05/01 07:22:57;;;;;;;6.45;5.25;;;;;;;17.26;69.65;97911.52;1805136;78;21028;-77
2021/05/01 07:25:26;;;;;;;5.17;4.78;;;;;;;17.28;69.89;97910.88;1787721;78;20941;-79
2021/05/01 07:28:04;;;;;;;6.17;5.58;;;;;;;17.33;70.82;97911.75;1794557;78;20965;-77
2021/05/01 07:30:38;;;;;;;5.28;4.87;;;;;;;17.41;69.62;97905.52;1807765;78;21362;-76
2021/05/01 07:33:26;;;;;;;5.47;5.08;;;;;;;17.51;69.02;97904.87;1788117;79;20929;-78
2021/05/01 07:36:12;;;;;;;5.35;4.78;;;;;;;17.63;69.48;97898.66;1806779;78;21143;-76
2021/05/01 07:38:45;;;;;;;6.92;6.35;;;;;;;17.77;67.58;97897.16;1799189;78;21471;-77
2021/05/01 07:41:15;;;;;;;5.67;5.12;;;;;;;17.90;67.57;97897.59;1796543;78;21049;-77
2021/05/01 07:43:49;;;;;;;5.37;4.87;;;;;;;18.07;67.17;97898.50;1783141;78;21355;-77
2021/05/01 07:46:16;;;;;;;4.97;4.35;;;;;;;18.23;65.93;97897.67;1802830;78;20937;-75
2021/05/01 07:48:47;;;;;;;5.42;4.90;;;;;;;18.37;65.43;97895.66;1793029;78;20934;-75
2021/05/01 07:51:14;;;;;;;5.47;4.58;;;;;;;18.46;65.17;97890.22;1798504;77;21018;-76
2021/05/01 07:53:45;;;;;;;5.72;4.67;;;;;;;18.58;65.78;97890.22;1788627;78;20915;-76
2021/05/01 07:56:13;;;;;;;4.80;4.40;;;;;;;18.72;65.77;97892.78;1799736;78;21353;-76
2021/05/01 07:58:41;;;;;;;4.33;3.92;;;;;;;18.86;64.80;97896.72;1781789;78;21576;-78
2021/05/01 08:01:09;;;;;;;4.33;4.00;;;;;;;18.96;62.28;97906.89;1778828;78;21735;-78
2021/05/01 08:03:36;;;;;;;4.28;3.77;;;;;;;19.04;62.27;97904.16;1773207;78;21510;-76
2021/05/01 08:06:04;;;;;;;5.20;4.70;;;;;;;19.07;63.01;97901.09;1801385;78;20926;-77
2021/05/01 08:08:32;;;;;;;4.28;3.80;;;;;;;19.06;61.31;97898.05;1781961;78;22373;-77
2021/05/01 08:11:02;;;;;;;5.03;4.55;;;;;;;19.06;61.47;97904.85;1807311;78;21506;-78
2021/05/01 08:13:29;;;;;;;4.30;3.92;;;;;;;19.06;61.52;97892.61;1809022;78;21013;-78
2021/05/01 08:15:59;;;;;;;5.97;5.37;;;;;;;19.10;61.63;97889.02;1776095;78;21123;-77
2021/05/01 08:18:30;;;;;;;4.70;4.30;;;;;;;19.12;61.46;97899.21;1783569;78;20996;-78
2021/05/01 08:20:57;;;;;;;4.12;3.72;;;;;;;19.16;59.07;97896.98;1781785;78;21317;-77
2021/05/01 08:23:24;;;;;;;4.08;3.67;;;;;;;19.18;59.28;97893.59;1775368;78;21093;-77
2021/05/01 08:25:54;;;;;;;4.92;3.92;;;;;;;19.16;58.22;97891.54;1782239;79;21030;-77
2021/05/01 08:28:23;;;;;;;4.00;3.65;;;;;;;19.13;58.89;97895.48;1765233;79;21005;-77
2021/05/01 08:30:51;;;;;;;4.20;3.80;;;;;;;19.10;59.81;97903.47;1780904;78;21097;-76
2021/05/01 08:33:24;;;;;;;4.55;4.15;;;;;;;19.08;59.65;97901.44;1802983;79;22365;-78
2021/05/01 08:35:52;;;;;;;4.45;4.05;;;;;;;19.08;59.15;97885.62;1802748;79;21005;-80
2021/05/01 08:38:20;;;;;;;3.62;3.33;;;;;;;19.06;59.40;97877.64;1793629;78;21498;-77
2021/05/01 08:40:50;;;;;;;5.30;4.80;;;;;;;19.03;58.91;97869.81;1793637;78;21180;-79
2021/05/01 08:43:17;;;;;;;5.50;5.00;;;;;;;19.01;59.81;97865.03;1800001;78;21020;-77
2021/05/01 08:45:47;;;;;;;4.70;4.30;;;;;;;19.00;60.24;97879.69;1786020;77;21361;-77
2021/05/01 08:48:16;;;;;;;5.42;4.92;;;;;;;19.05;61.11;97891.42;1795141;78;20962;-78
2021/05/01 08:50:52;;;;;;;6.47;5.87;;;;;;;19.10;61.68;97902.11;1795214;79;21152;-77
2021/05/01 08:53:21;;;;;;;6.35;4.70;;;;;;;19.23;61.68;97911.09;1767801;79;21702;-76
2021/05/01 08:55:49;;;;;;;4.85;4.45;;;;;;;19.37;60.93;97910.05;1764075;79;21557;-76
2021/05/01 08:58:16;;;;;;;5.17;4.67;;;;;;;19.49;61.13;97914.95;1786316;78;21648;-77
2021/05/01 09:00:47;;;;;;;5.67;4.80;;;;;;;19.61;61.16;97915.44;1752875;81;21678;-77
2021/05/01 09:03:18;;;;;;;5.12;4.37;;;;;;;19.77;61.14;97914.55;1746769;80;21099;-77
2021/05/01 09:05:45;;;;;;;4.42;3.85;;;;;;;19.95;60.40;97912.92;1763419;80;20925;-77
2021/05/01 09:08:15;;;;;;;5.65;3.42;;;;;;;20.15;61.17;97902.92;1768301;79;20999;-78
2021/05/01 09:10:49;;;;;;;4.97;4.25;;;;;;;20.38;60.48;97897.50;1729758;81;21194;-79
2021/05/01 09:13:26;;;;;;;5.65;3.15;;;;;;;20.62;58.72;97890.16;1741015;80;21067;-76
2021/05/01 09:16:04;;;;;;;4.53;3.75;;;;;;;20.91;59.89;97891.64;1723507;81;21137;-78
2021/05/01 09:18:55;;;;;;;4.60;3.45;;;;;;;21.15;58.78;97891.06;1770381;80;21052;-78
2021/05/01 09:21:29;;;;;;;3.25;2.95;;;;;;;21.37;57.01;97882.99;1773536;80;20944;-78
2021/05/01 09:24:00;;;;;;;4.83;2.37;;;;;;;21.55;56.68;97879.38;1748782;80;21240;-78
2021/05/01 09:26:39;;;;;;;3.30;2.60;;;;;;;21.73;54.79;97876.80;1724773;81;21593;-78
2021/05/01 09:29:08;;;;;;;3.20;2.83;;;;;;;21.82;53.19;97879.72;1776955;78;21033;-77
2021/05/01 09:31:47;;;;;;;4.45;2.70;;;;;;;21.89;53.70;97876.56;1800890;78;20906;-77
2021/05/01 09:34:20;;;;;;;3.33;2.17;;;;;;;21.93;53.27;97877.89;1766688;79;20958;-77
2021/05/01 09:36:48;;;;;;;4.28;2.00;;;;;;;21.91;52.58;97864.91;1751863;79;22417;-76
2021/05/01 09:39:15;;;;;;;3.37;2.00;;;;;;;21.89;52.83;97862.89;1731947;80;20958;-75
2021/05/01 09:41:45;;;;;;;4.20;3.80;;;;;;;21.87;53.03;97864.98;1757114;79;21076;-76
2021/05/01 09:44:16;;;;;;;2.87;2.65;;;;;;;21.82;52.26;97860.59;1808206;79;21379;-77
2021/05/01 09:46:48;;;;;;;4.12;1.92;;;;;;;21.77;51.83;97868.02;1802676;78;21125;-77
2021/05/01 09:49:32;;;;;;;3.22;1.77;;;;;;;21.68;51.97;97862.83;1799944;78;21244;-77
2021/05/01 09:52:19;;;;;;;4.28;1.95;;;;;;;21.58;52.81;97874.90;1764831;78;21036;-79
2021/05/01 09:54:53;;;;;;;4.83;2.55;;;;;;;21.46;52.95;97872.30;1785745;78;20957;-79
2021/05/01 09:57:22;;;;;;;2.98;2.02;;;;;;;21.29;53.46;97873.84;1788328;78;21111;-80
2021/05/01 09:59:54;;;;;;;3.33;2.45;;;;;;;21.16;54.15;97869.56;1807000;78;21065;-75
2021/05/01 10:02:35;;;;;;;8.75;3.55;;;;;;;21.02;54.76;97869.88;1786682;78;21426;-74
2021/05/01 10:05:10;;;;;;;4.22;3.80;;;;;;;20.87;55.38;97874.45;1784289;78;21080;-81
2021/05/01 10:07:42;;;;;;;3.42;2.10;;;;;;;20.70;57.21;97881.93;1804275;79;21113;-83
2021/05/01 10:10:10;;;;;;;3.12;2.80;;;;;;;20.52;58.01;97888.52;1805994;78;21001;-84
2021/05/01 10:12:42;;;;;;;2.87;2.47;;;;;;;20.33;58.87;97897.20;1807872;78;21644;-85
2021/05/01 10:15:19;;;;;;;2.17;1.85;;;;;;;20.07;59.78;97905.20;1809389;78;22285;-83
2021/05/01 10:17:49;;;;;;;2.20;2.00;;;;;;;19.80;59.91;97907.88;1795376;78;21036;-84
2021/05/01 10:20:18;;;;;;;2.30;2.10;;;;;;;19.54;61.53;97902.69;1809779;78;21127;-83
2021/05/01 10:22:47;;;;;;;3.22;2.30;;;;;;;19.27;62.79;97888.48;1781517;78;20947;-82
2021/05/01 10:25:21;;;;;;;4.50;2.90;;;;;;;19.03;63.66;97894.31;1770505;78;21026;-83
2021/05/01 10:28:04;;;;;;;2.55;1.95;;;;;;;18.82;64.57;97887.99;1799550;78;21326;-81
2021/05/01 10:30:39;;;;;;;;;;;;;;;18.64;65.05;97885.47;1746537;81;21548;-80
2021/05/01 10:35:50;;;;;;;3.15;1.77;;;;;;;18.30;67.62;97886.45;1738894;81;21022;-80
2021/05/01 10:38:21;;;;;;;3.30;2.50;;;;;;;18.19;68.59;97890.86;1769836;80;21089;-84
2021/05/01 10:41:16;;;;;;;4.17;3.65;;;;;;;18.11;69.30;97889.49;1755200;80;22292;-82
2021/05/01 10:43:56;;;;;;;3.65;3.20;;;;;;;18.05;69.98;97887.80;1757862;80;21081;-82
2021/05/01 10:46:28;;;;;;;3.40;3.10;;;;;;;18.02;71.20;97875.02;1764939;79;21615;-83
2021/05/01 10:49:00;;;;;;;3.12;2.60;;;;;;;18.06;72.71;97869.61;1767877;80;21090;-83
2021/05/01 10:51:46;;;;;;;2.50;2.22;;;;;;;18.13;73.73;97865.70;1771459;80;21176;-81
2021/05/01 10:54:19;;;;;;;3.80;2.85;;;;;;;18.22;73.39;97861.98;1768995;80;21374;-83
2021/05/01 10:56:54;;;;;;;4.90;2.45;;;;;;;18.34;72.80;97860.64;1764046;80;21171;-84
2021/05/01 10:59:29;;;;;;;3.87;1.60;;;;;;;18.46;72.78;97868.45;1765888;80;21097;-86
2021/05/01 11:02:01;;;;;;;2.75;1.92;;;;;;;18.55;70.96;97869.64;1775166;78;26624;-85
2021/05/01 11:04:34;;;;;;;1.72;1.40;;;;;;;18.66;69.17;97862.17;1800137;78;21005;-83
2021/05/01 11:07:21;;;;;;;2.60;1.37;;;;;;;18.75;68.32;97863.35;1801291;78;21197;-82
2021/05/01 11:10:06;;;;;;;3.08;1.65;;;;;;;18.80;68.07;97861.48;1806881;78;21015;-84
2021/05/01 11:12:39;;;;;;;2.42;1.47;;;;;;;18.87;68.18;97862.53;1792605;79;21088;-81
2021/05/01 11:15:18;;;;;;;2.95;1.25;;;;;;;18.91;66.23;97853.51;1775139;78;21664;-85
2021/05/01 11:18:06;;;;;;;2.70;1.10;;;;;;;18.99;66.12;97850.77;1806046;79;20910;-82
2021/05/01 11:20:36;;;;;;;1.98;1.20;;;;;;;19.09;66.89;97847.84;1777785;78;21374;-84
2021/05/01 11:23:04;;;;;;;1.27;1.10;;;;;;;19.18;65.12;97850.88;1790990;79;21110;-82
2021/05/01 11:25:33;;;;;;;1.25;1.00;;;;;;;19.30;67.12;97858.18;1777834;78;21025;-83
2021/05/01 11:28:01;;;;;;;1.05;0.88;;;;;;;19.40;66.50;97865.61;1786283;78;21201;-83
2021/05/01 11:30:32;;;;;;;2.10;1.70;;;;;;;19.50;64.85;97859.95;1806970;78;21136;-83
2021/05/01 11:33:03;;;;;;;1.05;1.00;;;;;;;19.58;64.42;97854.98;1796561;78;21109;-83
2021/05/01 11:35:32;;;;;;;1.22;0.90;;;;;;;19.63;63.47;97856.66;1792091;78;21030;-82
2021/05/01 11:38:03;;;;;;;2.50;1.17;;;;;;;19.67;63.58;97853.93;1800602;78;21502;-83
2021/05/01 11:40:35;;;;;;;1.90;1.75;;;;;;;19.66;63.80;97844.05;1790896;78;21064;-82
2021/05/01 11:43:03;;;;;;;3.75;1.90;;;;;;;19.67;63.47;97849.84;1809948;79;21110;-83
2021/05/01 11:46:12;;;;;;;3.50;2.83;;;;;;;19.67;63.94;97839.78;1800677;78;21326;-83
2021/05/01 11:49:05;;;;;;;2.75;1.47;;;;;;;19.70;63.79;97841.84;1783112;78;21024;-84
2021/05/01 11:52:13;;;;;;;1.85;1.52;;;;;;;19.72;63.73;97828.35;1809567;78;20957;-82
2021/05/01 11:55:02;;;;;;;3.37;1.40;;;;;;;19.77;63.43;97826.00;1799251;78;20931;-84